岡山グライダークラブ活動状況掲示板

岡山グライダークラブ
岡山市浦安南町639-1 岡南飛行場
 使用機:シャイベ式 SF25C型 ファルケ   JA2330
      ヴァレンティン式17E型 タイフーン  JA2342
 練習日:毎日曜日  クラブルーム:電話 086-265-1810
この掲示板は岡山グライダークラブの活動状況をお知らせする掲示板です。
!!!この掲示板は投稿規制をしています。!!!
クラブ関連各種情報は 岡山グライダークラブクラブルーム      を       .
  ブリーフイング情報は  岡山グライダークラブブリーフィングルーム  をご覧下さい。 .
※写真はクリックすると拡大して見ることが出来ます。
岡南飛行場へのアクセス等は 岡南飛行場管理事務所 をご覧ください。
クラブの ホームページ ができました。

!!!お待たせしました。新型コロナ感染症の感染が下火になったことから見学者等の受入を再開します。!!!
  注)なお、見学等の際には一般的な感染対策(マスク、ソーシャルディスタンス、黙食等)を順守してください。

 
09月23日
by OGC at 2022/9/24(土) 01:28:27 No.20220924012226  削除コメント
640 x 480 x 79,708バイト
No.1

09月23日
本日の参加者
  会員      08名
  その他     00名


@本日の様子






METAR
RJBK 230000Z 06003KT 010V090 25KM FEW020CU SCT040CU BKN060SC 23/21 Q1011 A2987
RJOB 230000Z 06006KT 9999 PRFG FEW000 SCT009 BKN015 22/20 Q1012
RJOT 230000Z 06005KT 030V100 5000 -SHRA PRFG BR FEW000 SCT003 BKN005 22/22 Q1011
RJOA 230000Z 05006KT 8000 BCFG FEW000 SCT005 BKN009 21/21 Q1012
TAF
RJOB 222310Z 2300/2406 03004KT 9999 FEW005 SCT008 BKN020
     TEMPO 2300/2302 FEW003 BKN008 BKN015
     TEMPO 2302/2305 4000 SHRA BR FEW001 BKN005 BKN008
     BECMG 2306/2308 29006KT
RJOT 222310Z 2300/2406 02006KT 9000 -SHRA FEW003 SCT008 BKN015
     TEMPO 2300/2302 FEW000 SCT005 BKN008
     BECMG 2305/2307 29008KT
RJOA 222309Z 2300/2406 06005KT 8000 -SHRA FEW005 SCT008 BKN015
     TEMPO 2300/2305 4000 -SHRA BR FEW001 SCT003 BKN005
     BECMG 2306/2308 33008KT

本日は曇りで風も穏やかなため、訓練生は実地試験に向け、ナビの練習に出たり、TGLの訓練をしたり、各々の課題克服に向け、がんばっていました。


解散    18:00

1番機  10:35離陸 撤収機  14:05着陸 

SF25C JA2330 ファルケ     04Flt.1h35min  
17E   JA2342 タイフーン    00Flt.0h00min
合計                    04Flt.1h35min

    << 戻る || ホームページ || 最新の掲示板へ